Главная страница
METAR-TAF:

METAR-TAF

Аэропорты :

Стокгольм-Арланда, Швеция

широта: 59-39N, долгота: 017-57E, высота над уровнем моря: 38 м

Текущие метеонаблюдения

Эта сводка был подготовлена 26 минут назад, в 07:50 UTC
Ветер 20 Узел от западный-юго-западный
Температура 4°C
Влажность 81%
Давление 994 hPa
Видимость 10 км и более
Рассеянная облачность на высоте 2200 фута

METAR: ESSA 210750Z 25020KT 9999 BKN022 04/01 Q0994 R01L/29//95 R08/29//95 R01R/29//95 NOSIG

Время: 09:16 (08:16 UTC)

Прогноз

Эта сводка был подготовлена 2 часа и 46 минут назад, в 05:30 UTC
Прогноз действительный с 21-го 06 UTC до 22-го 06 UTC
Ветер 20 Узел от южный
Видимость 10 км и более
Рассеянная облачность на высоте 1300 фута
изменения
С 21-го 06 UTC до 21-го 08 UTC
Ветер 15 Узел от западный с порывами до 25 Узел
изменения
С 21-го 17 UTC до 21-го 19 UTC
Ветер 15 Узел от южный-юго-западный с порывами до 30 Узел

TAF: ESSA 210530Z 2106/2206 18020KT 9999 BKN013 BECMG 2106/2108 27015G25KT NSC BECMG 2117/2119 21015G30KT

Метеонаблюдения и прогнозы для более 4000 аэропортов (сводки METAR и TAF).

Имеющиеся станции представлены на карте желтыми и красными точками.

Чтобы увидеть название станции, наведите на нее мышь.

Затем щелкните, чтобы увидеть метеонаблюдения и метеопрогнозы.

Управление картой: чтобы увеличить масштаб, щелкните зеленые кнопки с черным крестиком; чтобы уменьшить масштаб, щелкните зеленую кнопку с тире; для просмотра соседних карт щелкайте зеленые стрелки.


METAR-TAF: